sensor_id;sensor_type;location;lat;lon;timestamp;P1;durP1;ratioP1;P2;durP2;ratioP2
22435;SDS011;11385;50.822;4.324;2023-07-13T00:00:46;13.20;;;2.42;;
22435;SDS011;11385;50.822;4.324;2023-07-13T00:03:13;9.90;;;2.22;;
22435;SDS011;11385;50.822;4.324;2023-07-13T00:05:40;10.80;;;2.47;;
22435;SDS011;11385;50.822;4.324;2023-07-13T00:08:07;10.23;;;2.40;;
22435;SDS011;11385;50.822;4.324;2023-07-13T00:10:38;13.55;;;2.50;;
22435;SDS011;11385;50.822;4.324;2023-07-13T00:13:05;9.60;;;2.20;;
22435;SDS011;11385;50.822;4.324;2023-07-13T00:15:32;6.87;;;2.20;;
22435;SDS011;11385;50.822;4.324;2023-07-13T00:17:59;8.20;;;1.90;;
22435;SDS011;11385;50.822;4.324;2023-07-13T00:20:26;10.32;;;2.60;;
22435;SDS011;11385;50.822;4.324;2023-07-13T00:22:53;8.58;;;2.27;;
22435;SDS011;11385;50.822;4.324;2023-07-13T00:25:20;8.53;;;2.60;;
22435;SDS011;11385;50.822;4.324;2023-07-13T00:27:49;7.30;;;2.12;;
22435;SDS011;11385;50.822;4.324;2023-07-13T00:30:16;8.33;;;2.15;;
22435;SDS011;11385;50.822;4.324;2023-07-13T00:32:44;7.62;;;2.72;;
22435;SDS011;11385;50.822;4.324;2023-07-13T00:35:12;11.83;;;2.25;;
22435;SDS011;11385;50.822;4.324;2023-07-13T00:37:40;12.85;;;1.92;;
22435;SDS011;11385;50.822;4.324;2023-07-13T00:40:07;8.70;;;2.10;;
22435;SDS011;11385;50.822;4.324;2023-07-13T00:42:36;8.63;;;1.72;;
22435;SDS011;11385;50.822;4.324;2023-07-13T00:45:06;9.20;;;2.35;;
22435;SDS011;11385;50.822;4.324;2023-07-13T00:47:36;8.20;;;1.92;;
22435;SDS011;11385;50.822;4.324;2023-07-13T00:50:03;11.22;;;2.55;;
22435;SDS011;11385;50.822;4.324;2023-07-13T00:52:33;9.50;;;2.00;;
22435;SDS011;11385;50.822;4.324;2023-07-13T00:55:03;9.78;;;2.42;;
22435;SDS011;11385;50.822;4.324;2023-07-13T00:57:31;8.33;;;2.00;;
22435;SDS011;11385;50.822;4.324;2023-07-13T00:59:58;7.60;;;1.80;;
22435;SDS011;11385;50.822;4.324;2023-07-13T01:02:29;12.43;;;2.30;;
22435;SDS011;11385;50.822;4.324;2023-07-13T01:04:56;9.93;;;2.30;;
22435;SDS011;11385;50.822;4.324;2023-07-13T01:07:23;9.88;;;2.72;;
22435;SDS011;11385;50.822;4.324;2023-07-13T01:09:49;12.78;;;2.30;;
22435;SDS011;11385;50.822;4.324;2023-07-13T01:12:16;10.50;;;2.77;;
22435;SDS011;11385;50.822;4.324;2023-07-13T01:14:43;10.90;;;2.95;;
22435;SDS011;11385;50.822;4.324;2023-07-13T01:17:10;10.40;;;2.67;;
22435;SDS011;11385;50.822;4.324;2023-07-13T01:19:40;8.80;;;2.45;;
22435;SDS011;11385;50.822;4.324;2023-07-13T01:22:11;10.82;;;2.30;;
22435;SDS011;11385;50.822;4.324;2023-07-13T01:24:40;7.25;;;2.02;;
22435;SDS011;11385;50.822;4.324;2023-07-13T01:27:09;8.03;;;2.20;;
22435;SDS011;11385;50.822;4.324;2023-07-13T01:29:38;9.80;;;2.70;;
22435;SDS011;11385;50.822;4.324;2023-07-13T01:32:08;8.53;;;2.27;;
22435;SDS011;11385;50.822;4.324;2023-07-13T01:34:36;8.63;;;2.62;;
22435;SDS011;11385;50.822;4.324;2023-07-13T01:37:03;8.65;;;2.60;;
22435;SDS011;11385;50.822;4.324;2023-07-13T01:39:31;9.50;;;2.40;;
22435;SDS011;11385;50.822;4.324;2023-07-13T01:41:58;8.43;;;2.72;;
22435;SDS011;11385;50.822;4.324;2023-07-13T01:44:25;9.08;;;3.12;;
22435;SDS011;11385;50.822;4.324;2023-07-13T01:46:52;8.50;;;2.52;;
22435;SDS011;11385;50.822;4.324;2023-07-13T01:49:19;11.50;;;2.67;;
22435;SDS011;11385;50.822;4.324;2023-07-13T01:51:46;10.40;;;2.50;;
22435;SDS011;11385;50.822;4.324;2023-07-13T01:54:12;10.05;;;2.33;;
22435;SDS011;11385;50.822;4.324;2023-07-13T01:56:39;12.30;;;2.77;;
22435;SDS011;11385;50.822;4.324;2023-07-13T01:59:07;10.63;;;2.62;;
22435;SDS011;11385;50.822;4.324;2023-07-13T02:01:35;9.73;;;2.58;;
22435;SDS011;11385;50.822;4.324;2023-07-13T02:04:02;9.55;;;2.60;;
22435;SDS011;11385;50.822;4.324;2023-07-13T02:06:29;10.32;;;2.77;;
22435;SDS011;11385;50.822;4.324;2023-07-13T02:08:55;12.90;;;3.05;;
22435;SDS011;11385;50.822;4.324;2023-07-13T02:11:22;7.78;;;2.58;;
22435;SDS011;11385;50.822;4.324;2023-07-13T02:13:48;16.87;;;3.02;;
22435;SDS011;11385;50.822;4.324;2023-07-13T02:16:15;9.30;;;3.30;;
22435;SDS011;11385;50.822;4.324;2023-07-13T02:18:42;13.32;;;3.30;;
22435;SDS011;11385;50.822;4.324;2023-07-13T02:21:08;14.68;;;2.55;;
22435;SDS011;11385;50.822;4.324;2023-07-13T02:23:35;9.70;;;2.65;;
22435;SDS011;11385;50.822;4.324;2023-07-13T02:26:03;13.75;;;2.83;;
22435;SDS011;11385;50.822;4.324;2023-07-13T02:28:30;14.45;;;3.37;;
22435;SDS011;11385;50.822;4.324;2023-07-13T02:31:03;16.30;;;3.35;;
22435;SDS011;11385;50.822;4.324;2023-07-13T02:33:32;11.70;;;2.65;;
22435;SDS011;11385;50.822;4.324;2023-07-13T02:35:58;15.90;;;3.20;;
22435;SDS011;11385;50.822;4.324;2023-07-13T02:38:25;11.90;;;3.00;;
22435;SDS011;11385;50.822;4.324;2023-07-13T02:40:51;11.63;;;2.35;;
22435;SDS011;11385;50.822;4.324;2023-07-13T02:43:18;10.28;;;2.77;;
22435;SDS011;11385;50.822;4.324;2023-07-13T02:45:45;10.00;;;2.80;;
22435;SDS011;11385;50.822;4.324;2023-07-13T02:48:13;8.80;;;2.85;;
22435;SDS011;11385;50.822;4.324;2023-07-13T02:50:40;10.20;;;2.70;;
22435;SDS011;11385;50.822;4.324;2023-07-13T02:53:07;14.53;;;2.90;;
22435;SDS011;11385;50.822;4.324;2023-07-13T02:55:34;12.23;;;3.30;;
22435;SDS011;11385;50.822;4.324;2023-07-13T02:58:00;9.35;;;2.58;;
22435;SDS011;11385;50.822;4.324;2023-07-13T03:00:27;12.82;;;3.15;;
22435;SDS011;11385;50.822;4.324;2023-07-13T03:02:54;10.72;;;3.00;;
22435;SDS011;11385;50.822;4.324;2023-07-13T03:05:23;13.83;;;3.15;;
22435;SDS011;11385;50.822;4.324;2023-07-13T03:07:50;12.55;;;3.17;;
22435;SDS011;11385;50.822;4.324;2023-07-13T03:10:16;10.82;;;3.40;;
22435;SDS011;11385;50.822;4.324;2023-07-13T03:12:43;9.50;;;3.00;;
22435;SDS011;11385;50.822;4.324;2023-07-13T03:15:10;15.95;;;3.45;;
22435;SDS011;11385;50.822;4.324;2023-07-13T03:17:37;8.28;;;2.67;;
22435;SDS011;11385;50.822;4.324;2023-07-13T03:20:03;10.45;;;2.30;;
22435;SDS011;11385;50.822;4.324;2023-07-13T03:22:31;10.55;;;3.12;;
22435;SDS011;11385;50.822;4.324;2023-07-13T03:24:57;11.35;;;3.22;;
22435;SDS011;11385;50.822;4.324;2023-07-13T03:27:24;12.82;;;3.05;;
22435;SDS011;11385;50.822;4.324;2023-07-13T03:29:51;9.00;;;3.02;;
22435;SDS011;11385;50.822;4.324;2023-07-13T03:32:17;12.00;;;3.65;;
22435;SDS011;11385;50.822;4.324;2023-07-13T03:34:44;13.93;;;3.77;;
22435;SDS011;11385;50.822;4.324;2023-07-13T03:37:11;9.90;;;2.80;;
22435;SDS011;11385;50.822;4.324;2023-07-13T03:39:37;8.43;;;3.67;;
22435;SDS011;11385;50.822;4.324;2023-07-13T03:42:04;11.43;;;3.10;;
22435;SDS011;11385;50.822;4.324;2023-07-13T03:44:31;14.80;;;3.75;;
22435;SDS011;11385;50.822;4.324;2023-07-13T03:46:58;14.55;;;3.55;;
22435;SDS011;11385;50.822;4.324;2023-07-13T03:49:24;18.02;;;3.85;;
22435;SDS011;11385;50.822;4.324;2023-07-13T03:51:51;13.28;;;3.42;;
22435;SDS011;11385;50.822;4.324;2023-07-13T03:54:17;12.70;;;2.83;;
22435;SDS011;11385;50.822;4.324;2023-07-13T03:56:44;10.48;;;3.25;;
22435;SDS011;11385;50.822;4.324;2023-07-13T03:59:11;11.60;;;3.35;;
22435;SDS011;11385;50.822;4.324;2023-07-13T04:01:37;13.38;;;3.33;;
22435;SDS011;11385;50.822;4.324;2023-07-13T04:04:04;10.95;;;3.10;;
22435;SDS011;11385;50.822;4.324;2023-07-13T04:06:31;15.15;;;4.17;;
22435;SDS011;11385;50.822;4.324;2023-07-13T04:08:59;11.08;;;3.33;;
22435;SDS011;11385;50.822;4.324;2023-07-13T04:11:28;11.75;;;3.50;;
22435;SDS011;11385;50.822;4.324;2023-07-13T04:13:59;11.35;;;3.12;;
22435;SDS011;11385;50.822;4.324;2023-07-13T04:16:26;10.48;;;2.92;;
22435;SDS011;11385;50.822;4.324;2023-07-13T04:18:52;13.62;;;3.40;;
22435;SDS011;11385;50.822;4.324;2023-07-13T04:21:22;14.53;;;3.17;;
22435;SDS011;11385;50.822;4.324;2023-07-13T04:23:49;13.68;;;3.22;;
22435;SDS011;11385;50.822;4.324;2023-07-13T04:26:16;18.87;;;3.87;;
22435;SDS011;11385;50.822;4.324;2023-07-13T04:28:42;14.13;;;3.55;;
22435;SDS011;11385;50.822;4.324;2023-07-13T04:31:09;13.58;;;3.10;;
22435;SDS011;11385;50.822;4.324;2023-07-13T04:33:36;13.43;;;2.90;;
22435;SDS011;11385;50.822;4.324;2023-07-13T04:36:03;16.05;;;4.60;;
22435;SDS011;11385;50.822;4.324;2023-07-13T04:38:31;14.03;;;3.27;;
22435;SDS011;11385;50.822;4.324;2023-07-13T04:41:00;15.03;;;3.47;;
22435;SDS011;11385;50.822;4.324;2023-07-13T04:43:28;16.10;;;4.03;;
22435;SDS011;11385;50.822;4.324;2023-07-13T04:45:55;10.78;;;3.25;;
22435;SDS011;11385;50.822;4.324;2023-07-13T04:48:22;16.82;;;3.12;;
22435;SDS011;11385;50.822;4.324;2023-07-13T04:50:55;13.53;;;4.00;;
22435;SDS011;11385;50.822;4.324;2023-07-13T04:53:23;17.65;;;3.98;;
22435;SDS011;11385;50.822;4.324;2023-07-13T04:55:50;13.60;;;3.27;;
22435;SDS011;11385;50.822;4.324;2023-07-13T04:58:17;13.50;;;3.25;;
22435;SDS011;11385;50.822;4.324;2023-07-13T05:00:44;13.70;;;3.33;;
22435;SDS011;11385;50.822;4.324;2023-07-13T05:03:11;16.65;;;3.90;;
22435;SDS011;11385;50.822;4.324;2023-07-13T05:05:37;14.78;;;3.27;;
22435;SDS011;11385;50.822;4.324;2023-07-13T05:08:04;14.95;;;3.27;;
22435;SDS011;11385;50.822;4.324;2023-07-13T05:10:32;12.65;;;2.80;;
22435;SDS011;11385;50.822;4.324;2023-07-13T05:12:59;14.35;;;3.22;;
22435;SDS011;11385;50.822;4.324;2023-07-13T05:15:26;14.73;;;4.17;;
22435;SDS011;11385;50.822;4.324;2023-07-13T05:17:53;15.72;;;3.92;;
22435;SDS011;11385;50.822;4.324;2023-07-13T05:20:19;13.43;;;3.42;;
22435;SDS011;11385;50.822;4.324;2023-07-13T05:22:46;13.80;;;3.65;;
22435;SDS011;11385;50.822;4.324;2023-07-13T05:25:13;20.00;;;4.60;;
22435;SDS011;11385;50.822;4.324;2023-07-13T05:27:40;12.07;;;3.15;;
22435;SDS011;11385;50.822;4.324;2023-07-13T05:30:07;20.43;;;3.67;;
22435;SDS011;11385;50.822;4.324;2023-07-13T05:32:36;14.98;;;3.67;;
22435;SDS011;11385;50.822;4.324;2023-07-13T05:35:03;12.03;;;3.05;;
22435;SDS011;11385;50.822;4.324;2023-07-13T05:37:30;17.73;;;3.77;;
22435;SDS011;11385;50.822;4.324;2023-07-13T05:39:56;13.83;;;3.52;;
22435;SDS011;11385;50.822;4.324;2023-07-13T05:42:23;14.55;;;3.00;;
22435;SDS011;11385;50.822;4.324;2023-07-13T05:44:49;12.33;;;3.40;;
22435;SDS011;11385;50.822;4.324;2023-07-13T05:47:16;11.12;;;3.52;;
22435;SDS011;11385;50.822;4.324;2023-07-13T05:49:43;17.23;;;3.50;;
22435;SDS011;11385;50.822;4.324;2023-07-13T05:52:09;11.43;;;3.58;;
22435;SDS011;11385;50.822;4.324;2023-07-13T05:54:37;15.10;;;3.65;;
22435;SDS011;11385;50.822;4.324;2023-07-13T05:57:04;17.10;;;4.12;;
22435;SDS011;11385;50.822;4.324;2023-07-13T05:59:30;17.10;;;4.08;;
22435;SDS011;11385;50.822;4.324;2023-07-13T06:01:57;15.05;;;3.55;;
22435;SDS011;11385;50.822;4.324;2023-07-13T06:04:24;14.93;;;3.85;;
22435;SDS011;11385;50.822;4.324;2023-07-13T06:06:50;16.15;;;3.77;;
22435;SDS011;11385;50.822;4.324;2023-07-13T06:09:17;17.30;;;3.25;;
22435;SDS011;11385;50.822;4.324;2023-07-13T06:11:44;29.27;;;5.33;;
22435;SDS011;11385;50.822;4.324;2023-07-13T06:14:10;10.88;;;3.92;;
22435;SDS011;11385;50.822;4.324;2023-07-13T06:16:37;16.02;;;3.75;;
22435;SDS011;11385;50.822;4.324;2023-07-13T06:19:04;13.32;;;2.87;;
22435;SDS011;11385;50.822;4.324;2023-07-13T06:21:31;17.02;;;3.67;;
22435;SDS011;11385;50.822;4.324;2023-07-13T06:23:58;15.83;;;3.17;;
22435;SDS011;11385;50.822;4.324;2023-07-13T06:26:25;10.98;;;2.95;;
22435;SDS011;11385;50.822;4.324;2023-07-13T06:28:52;15.85;;;3.45;;
22435;SDS011;11385;50.822;4.324;2023-07-13T06:31:19;13.15;;;3.45;;
22435;SDS011;11385;50.822;4.324;2023-07-13T06:33:45;13.13;;;3.47;;
22435;SDS011;11385;50.822;4.324;2023-07-13T06:36:12;17.00;;;3.50;;
22435;SDS011;11385;50.822;4.324;2023-07-13T06:38:39;11.83;;;3.12;;
22435;SDS011;11385;50.822;4.324;2023-07-13T06:41:06;15.40;;;2.98;;
22435;SDS011;11385;50.822;4.324;2023-07-13T06:43:33;15.68;;;3.27;;
22435;SDS011;11385;50.822;4.324;2023-07-13T06:46:00;18.73;;;3.67;;
22435;SDS011;11385;50.822;4.324;2023-07-13T06:48:27;17.23;;;5.15;;
22435;SDS011;11385;50.822;4.324;2023-07-13T06:50:54;16.87;;;5.08;;
22435;SDS011;11385;50.822;4.324;2023-07-13T06:53:22;19.92;;;8.00;;
22435;SDS011;11385;50.822;4.324;2023-07-13T06:55:49;12.78;;;3.30;;
22435;SDS011;11385;50.822;4.324;2023-07-13T06:58:17;16.37;;;3.83;;
22435;SDS011;11385;50.822;4.324;2023-07-13T07:00:44;14.63;;;3.52;;
22435;SDS011;11385;50.822;4.324;2023-07-13T07:03:12;16.50;;;6.95;;
22435;SDS011;11385;50.822;4.324;2023-07-13T07:05:39;20.92;;;10.13;;
22435;SDS011;11385;50.822;4.324;2023-07-13T07:08:06;13.72;;;4.05;;
22435;SDS011;11385;50.822;4.324;2023-07-13T07:10:33;13.22;;;3.62;;
22435;SDS011;11385;50.822;4.324;2023-07-13T07:13:00;16.42;;;7.65;;
22435;SDS011;11385;50.822;4.324;2023-07-13T07:15:27;18.92;;;6.65;;
22435;SDS011;11385;50.822;4.324;2023-07-13T07:17:54;13.80;;;3.52;;
22435;SDS011;11385;50.822;4.324;2023-07-13T07:20:21;12.05;;;3.33;;
22435;SDS011;11385;50.822;4.324;2023-07-13T07:22:48;12.63;;;3.12;;
22435;SDS011;11385;50.822;4.324;2023-07-13T07:25:14;14.13;;;3.25;;
22435;SDS011;11385;50.822;4.324;2023-07-13T07:27:41;10.93;;;3.27;;
22435;SDS011;11385;50.822;4.324;2023-07-13T07:30:08;15.18;;;3.33;;
22435;SDS011;11385;50.822;4.324;2023-07-13T07:32:35;14.58;;;3.27;;
22435;SDS011;11385;50.822;4.324;2023-07-13T07:35:02;11.60;;;2.90;;
22435;SDS011;11385;50.822;4.324;2023-07-13T07:37:28;11.68;;;3.22;;
22435;SDS011;11385;50.822;4.324;2023-07-13T07:39:55;16.32;;;4.00;;
22435;SDS011;11385;50.822;4.324;2023-07-13T07:42:22;13.10;;;3.30;;
22435;SDS011;11385;50.822;4.324;2023-07-13T07:44:48;16.70;;;3.08;;
22435;SDS011;11385;50.822;4.324;2023-07-13T07:47:15;12.23;;;3.30;;
22435;SDS011;11385;50.822;4.324;2023-07-13T07:49:42;12.55;;;3.25;;
22435;SDS011;11385;50.822;4.324;2023-07-13T07:52:08;13.88;;;3.98;;
22435;SDS011;11385;50.822;4.324;2023-07-13T07:54:35;14.35;;;3.67;;
22435;SDS011;11385;50.822;4.324;2023-07-13T07:57:02;15.18;;;3.45;;
22435;SDS011;11385;50.822;4.324;2023-07-13T07:59:29;37.28;;;23.67;;
22435;SDS011;11385;50.822;4.324;2023-07-13T08:01:55;13.18;;;3.50;;
22435;SDS011;11385;50.822;4.324;2023-07-13T08:04:22;10.35;;;2.77;;
22435;SDS011;11385;50.822;4.324;2023-07-13T08:06:49;11.05;;;3.05;;
22435;SDS011;11385;50.822;4.324;2023-07-13T08:09:15;12.15;;;2.98;;
22435;SDS011;11385;50.822;4.324;2023-07-13T08:11:42;12.60;;;3.30;;
22435;SDS011;11385;50.822;4.324;2023-07-13T08:14:09;13.43;;;3.02;;
22435;SDS011;11385;50.822;4.324;2023-07-13T08:16:35;14.45;;;3.40;;
22435;SDS011;11385;50.822;4.324;2023-07-13T08:19:03;11.95;;;3.20;;
22435;SDS011;11385;50.822;4.324;2023-07-13T08:21:29;11.60;;;3.17;;
22435;SDS011;11385;50.822;4.324;2023-07-13T08:23:56;14.15;;;3.17;;
22435;SDS011;11385;50.822;4.324;2023-07-13T08:26:23;9.80;;;2.70;;
22435;SDS011;11385;50.822;4.324;2023-07-13T08:28:50;12.93;;;2.90;;
22435;SDS011;11385;50.822;4.324;2023-07-13T08:31:17;13.58;;;3.25;;
22435;SDS011;11385;50.822;4.324;2023-07-13T08:33:43;10.98;;;3.10;;
22435;SDS011;11385;50.822;4.324;2023-07-13T08:36:10;12.37;;;2.80;;
22435;SDS011;11385;50.822;4.324;2023-07-13T08:38:37;10.93;;;2.55;;
22435;SDS011;11385;50.822;4.324;2023-07-13T08:41:12;11.78;;;2.65;;
22435;SDS011;11385;50.822;4.324;2023-07-13T08:43:40;7.80;;;2.65;;
22435;SDS011;11385;50.822;4.324;2023-07-13T08:46:12;10.55;;;3.70;;
22435;SDS011;11385;50.822;4.324;2023-07-13T08:48:43;14.07;;;4.40;;
22435;SDS011;11385;50.822;4.324;2023-07-13T08:54:07;10.08;;;2.75;;
22435;SDS011;11385;50.822;4.324;2023-07-13T08:56:43;7.40;;;2.52;;
22435;SDS011;11385;50.822;4.324;2023-07-13T08:59:14;11.57;;;2.77;;
22435;SDS011;11385;50.822;4.324;2023-07-13T09:04:22;12.10;;;2.45;;
22435;SDS011;11385;50.822;4.324;2023-07-13T09:09:55;10.15;;;3.02;;
22435;SDS011;11385;50.822;4.324;2023-07-13T09:12:40;10.18;;;2.65;;
22435;SDS011;11385;50.822;4.324;2023-07-13T09:15:19;16.50;;;2.92;;
22435;SDS011;11385;50.822;4.324;2023-07-13T09:17:57;12.73;;;2.85;;
22435;SDS011;11385;50.822;4.324;2023-07-13T09:20:30;9.58;;;2.92;;
22435;SDS011;11385;50.822;4.324;2023-07-13T09:23:00;9.88;;;2.27;;
22435;SDS011;11385;50.822;4.324;2023-07-13T09:25:31;10.95;;;2.80;;
22435;SDS011;11385;50.822;4.324;2023-07-13T09:28:02;8.45;;;2.33;;
22435;SDS011;11385;50.822;4.324;2023-07-13T09:30:37;8.53;;;2.53;;
22435;SDS011;11385;50.822;4.324;2023-07-13T09:33:05;9.65;;;2.62;;
22435;SDS011;11385;50.822;4.324;2023-07-13T09:35:31;5.33;;;2.08;;
22435;SDS011;11385;50.822;4.324;2023-07-13T09:38:04;7.62;;;2.12;;
22435;SDS011;11385;50.822;4.324;2023-07-13T09:40:40;10.63;;;2.35;;
22435;SDS011;11385;50.822;4.324;2023-07-13T09:43:07;11.18;;;2.45;;
22435;SDS011;11385;50.822;4.324;2023-07-13T09:45:37;7.58;;;2.17;;
22435;SDS011;11385;50.822;4.324;2023-07-13T09:48:05;8.85;;;2.15;;
22435;SDS011;11385;50.822;4.324;2023-07-13T09:50:35;10.45;;;2.33;;
22435;SDS011;11385;50.822;4.324;2023-07-13T09:53:02;11.18;;;2.65;;
22435;SDS011;11385;50.822;4.324;2023-07-13T09:55:30;14.20;;;2.92;;
22435;SDS011;11385;50.822;4.324;2023-07-13T09:58:32;6.40;;;2.30;;
22435;SDS011;11385;50.822;4.324;2023-07-13T10:03:25;8.10;;;1.90;;
22435;SDS011;11385;50.822;4.324;2023-07-13T10:05:54;8.95;;;1.90;;
22435;SDS011;11385;50.822;4.324;2023-07-13T10:08:25;8.20;;;2.42;;
22435;SDS011;11385;50.822;4.324;2023-07-13T10:10:54;9.58;;;1.77;;
22435;SDS011;11385;50.822;4.324;2023-07-13T10:13:28;6.35;;;1.80;;
22435;SDS011;11385;50.822;4.324;2023-07-13T10:15:57;9.85;;;2.65;;
22435;SDS011;11385;50.822;4.324;2023-07-13T10:18:25;8.95;;;2.47;;
22435;SDS011;11385;50.822;4.324;2023-07-13T10:20:54;10.35;;;2.40;;
22435;SDS011;11385;50.822;4.324;2023-07-13T10:23:27;8.28;;;2.25;;
22435;SDS011;11385;50.822;4.324;2023-07-13T10:25:57;11.70;;;2.58;;
22435;SDS011;11385;50.822;4.324;2023-07-13T10:28:30;5.80;;;1.83;;
22435;SDS011;11385;50.822;4.324;2023-07-13T10:31:00;5.58;;;1.40;;
22435;SDS011;11385;50.822;4.324;2023-07-13T10:33:28;7.70;;;1.70;;
22435;SDS011;11385;50.822;4.324;2023-07-13T10:36:05;8.65;;;2.10;;
22435;SDS011;11385;50.822;4.324;2023-07-13T10:38:28;7.20;;;2.22;;
22435;SDS011;11385;50.822;4.324;2023-07-13T10:40:56;7.80;;;2.25;;
22435;SDS011;11385;50.822;4.324;2023-07-13T10:43:27;7.08;;;2.10;;
22435;SDS011;11385;50.822;4.324;2023-07-13T10:45:58;11.38;;;1.98;;
22435;SDS011;11385;50.822;4.324;2023-07-13T10:48:27;9.08;;;2.37;;
22435;SDS011;11385;50.822;4.324;2023-07-13T10:50:55;5.87;;;1.75;;
22435;SDS011;11385;50.822;4.324;2023-07-13T10:53:28;7.35;;;2.12;;
22435;SDS011;11385;50.822;4.324;2023-07-13T10:56:00;6.12;;;1.70;;
22435;SDS011;11385;50.822;4.324;2023-07-13T10:58:33;10.00;;;2.25;;
22435;SDS011;11385;50.822;4.324;2023-07-13T11:01:10;7.95;;;1.85;;
22435;SDS011;11385;50.822;4.324;2023-07-13T11:03:54;9.85;;;1.67;;
22435;SDS011;11385;50.822;4.324;2023-07-13T11:06:33;7.65;;;1.80;;
22435;SDS011;11385;50.822;4.324;2023-07-13T11:09:30;8.30;;;1.57;;
22435;SDS011;11385;50.822;4.324;2023-07-13T11:11:53;9.00;;;1.98;;
22435;SDS011;11385;50.822;4.324;2023-07-13T11:16:56;8.53;;;1.65;;
22435;SDS011;11385;50.822;4.324;2023-07-13T11:19:25;5.65;;;2.00;;
22435;SDS011;11385;50.822;4.324;2023-07-13T11:22:02;7.85;;;2.00;;
22435;SDS011;11385;50.822;4.324;2023-07-13T11:24:59;6.47;;;2.15;;
22435;SDS011;11385;50.822;4.324;2023-07-13T11:27:44;7.83;;;2.00;;
22435;SDS011;11385;50.822;4.324;2023-07-13T11:30:21;5.15;;;1.90;;
22435;SDS011;11385;50.822;4.324;2023-07-13T11:32:52;7.57;;;1.77;;
22435;SDS011;11385;50.822;4.324;2023-07-13T11:35:41;8.95;;;1.77;;
22435;SDS011;11385;50.822;4.324;2023-07-13T11:38:14;6.70;;;1.82;;
22435;SDS011;11385;50.822;4.324;2023-07-13T11:40:53;6.78;;;1.40;;
22435;SDS011;11385;50.822;4.324;2023-07-13T11:43:21;7.83;;;1.90;;
22435;SDS011;11385;50.822;4.324;2023-07-13T11:45:50;8.58;;;1.80;;
22435;SDS011;11385;50.822;4.324;2023-07-13T11:48:21;9.40;;;1.92;;
22435;SDS011;11385;50.822;4.324;2023-07-13T11:50:51;5.97;;;1.30;;
22435;SDS011;11385;50.822;4.324;2023-07-13T11:53:23;6.78;;;1.82;;
22435;SDS011;11385;50.822;4.324;2023-07-13T11:55:53;7.63;;;2.13;;
22435;SDS011;11385;50.822;4.324;2023-07-13T11:58:21;6.20;;;1.90;;
22435;SDS011;11385;50.822;4.324;2023-07-13T12:00:49;8.45;;;1.75;;
22435;SDS011;11385;50.822;4.324;2023-07-13T12:03:22;6.55;;;1.92;;
22435;SDS011;11385;50.822;4.324;2023-07-13T12:05:55;6.97;;;1.70;;
22435;SDS011;11385;50.822;4.324;2023-07-13T12:08:23;6.30;;;1.70;;
22435;SDS011;11385;50.822;4.324;2023-07-13T12:10:56;7.28;;;2.05;;
22435;SDS011;11385;50.822;4.324;2023-07-13T12:13:26;6.90;;;1.80;;
22435;SDS011;11385;50.822;4.324;2023-07-13T12:15:55;7.55;;;1.80;;
22435;SDS011;11385;50.822;4.324;2023-07-13T12:18:23;7.12;;;1.55;;
22435;SDS011;11385;50.822;4.324;2023-07-13T12:20:55;6.65;;;1.40;;
22435;SDS011;11385;50.822;4.324;2023-07-13T12:23:28;6.05;;;1.52;;
22435;SDS011;11385;50.822;4.324;2023-07-13T12:25:56;5.37;;;1.32;;
22435;SDS011;11385;50.822;4.324;2023-07-13T12:28:34;6.97;;;1.27;;
22435;SDS011;11385;50.822;4.324;2023-07-13T12:31:04;4.35;;;1.35;;
22435;SDS011;11385;50.822;4.324;2023-07-13T12:33:33;5.95;;;1.52;;
22435;SDS011;11385;50.822;4.324;2023-07-13T12:36:03;4.08;;;1.60;;
22435;SDS011;11385;50.822;4.324;2023-07-13T12:38:32;6.10;;;2.08;;
22435;SDS011;11385;50.822;4.324;2023-07-13T12:40:59;5.50;;;1.72;;
22435;SDS011;11385;50.822;4.324;2023-07-13T12:43:29;8.13;;;2.22;;
22435;SDS011;11385;50.822;4.324;2023-07-13T12:46:03;13.43;;;2.50;;
22435;SDS011;11385;50.822;4.324;2023-07-13T12:48:38;10.00;;;3.17;;
22435;SDS011;11385;50.822;4.324;2023-07-13T12:51:08;7.47;;;2.83;;
22435;SDS011;11385;50.822;4.324;2023-07-13T12:53:40;7.58;;;2.85;;
22435;SDS011;11385;50.822;4.324;2023-07-13T12:56:11;7.15;;;2.70;;
22435;SDS011;11385;50.822;4.324;2023-07-13T12:58:40;5.40;;;2.20;;
22435;SDS011;11385;50.822;4.324;2023-07-13T13:01:10;7.83;;;2.67;;
22435;SDS011;11385;50.822;4.324;2023-07-13T13:03:40;7.95;;;2.45;;
22435;SDS011;11385;50.822;4.324;2023-07-13T13:06:23;9.58;;;2.90;;
22435;SDS011;11385;50.822;4.324;2023-07-13T13:08:54;5.30;;;2.45;;
22435;SDS011;11385;50.822;4.324;2023-07-13T13:11:24;6.17;;;2.30;;
22435;SDS011;11385;50.822;4.324;2023-07-13T13:13:52;5.35;;;2.33;;
22435;SDS011;11385;50.822;4.324;2023-07-13T13:16:33;5.28;;;2.10;;
22435;SDS011;11385;50.822;4.324;2023-07-13T13:21:39;4.37;;;2.12;;
22435;SDS011;11385;50.822;4.324;2023-07-13T13:24:11;5.58;;;2.52;;
22435;SDS011;11385;50.822;4.324;2023-07-13T13:26:40;5.22;;;2.10;;
22435;SDS011;11385;50.822;4.324;2023-07-13T13:29:10;7.12;;;3.92;;
22435;SDS011;11385;50.822;4.324;2023-07-13T13:31:40;6.67;;;1.75;;
22435;SDS011;11385;50.822;4.324;2023-07-13T13:34:11;5.22;;;1.80;;
22435;SDS011;11385;50.822;4.324;2023-07-13T13:36:39;9.50;;;2.05;;
22435;SDS011;11385;50.822;4.324;2023-07-13T13:39:16;6.00;;;2.15;;
22435;SDS011;11385;50.822;4.324;2023-07-13T13:41:42;4.70;;;1.35;;
22435;SDS011;11385;50.822;4.324;2023-07-13T13:44:09;6.40;;;2.08;;
22435;SDS011;11385;50.822;4.324;2023-07-13T13:46:36;4.50;;;1.65;;
22435;SDS011;11385;50.822;4.324;2023-07-13T13:49:03;6.03;;;1.50;;
22435;SDS011;11385;50.822;4.324;2023-07-13T13:51:29;5.78;;;1.70;;
22435;SDS011;11385;50.822;4.324;2023-07-13T13:53:57;4.62;;;1.62;;
22435;SDS011;11385;50.822;4.324;2023-07-13T13:56:25;6.10;;;1.65;;
22435;SDS011;11385;50.822;4.324;2023-07-13T13:58:52;5.22;;;1.70;;
22435;SDS011;11385;50.822;4.324;2023-07-13T14:01:20;5.87;;;1.77;;
22435;SDS011;11385;50.822;4.324;2023-07-13T14:03:48;5.30;;;1.85;;
22435;SDS011;11385;50.822;4.324;2023-07-13T14:06:17;3.77;;;1.70;;
22435;SDS011;11385;50.822;4.324;2023-07-13T14:08:43;3.67;;;1.60;;
22435;SDS011;11385;50.822;4.324;2023-07-13T14:11:12;5.62;;;1.87;;
22435;SDS011;11385;50.822;4.324;2023-07-13T14:13:44;6.10;;;1.90;;
22435;SDS011;11385;50.822;4.324;2023-07-13T14:16:17;6.17;;;1.82;;
22435;SDS011;11385;50.822;4.324;2023-07-13T14:18:47;7.00;;;2.00;;
22435;SDS011;11385;50.822;4.324;2023-07-13T14:21:16;7.65;;;2.02;;
22435;SDS011;11385;50.822;4.324;2023-07-13T14:23:45;6.53;;;2.10;;
22435;SDS011;11385;50.822;4.324;2023-07-13T14:26:14;5.08;;;2.00;;
22435;SDS011;11385;50.822;4.324;2023-07-13T14:28:44;5.72;;;1.77;;
22435;SDS011;11385;50.822;4.324;2023-07-13T14:31:13;5.33;;;2.00;;
22435;SDS011;11385;50.822;4.324;2023-07-13T14:33:41;6.10;;;1.82;;
22435;SDS011;11385;50.822;4.324;2023-07-13T14:36:28;3.77;;;1.55;;
22435;SDS011;11385;50.822;4.324;2023-07-13T14:38:57;4.33;;;1.40;;
22435;SDS011;11385;50.822;4.324;2023-07-13T14:41:25;6.37;;;2.05;;
22435;SDS011;11385;50.822;4.324;2023-07-13T14:43:53;8.33;;;2.00;;
22435;SDS011;11385;50.822;4.324;2023-07-13T14:46:29;3.72;;;1.57;;
22435;SDS011;11385;50.822;4.324;2023-07-13T14:49:00;4.37;;;1.62;;
22435;SDS011;11385;50.822;4.324;2023-07-13T14:51:34;5.58;;;2.00;;
22435;SDS011;11385;50.822;4.324;2023-07-13T14:54:03;5.37;;;1.70;;
22435;SDS011;11385;50.822;4.324;2023-07-13T14:56:31;6.78;;;1.90;;
22435;SDS011;11385;50.822;4.324;2023-07-13T14:58:58;5.30;;;2.12;;
22435;SDS011;11385;50.822;4.324;2023-07-13T15:01:24;4.72;;;1.77;;
22435;SDS011;11385;50.822;4.324;2023-07-13T15:03:51;7.00;;;2.00;;
22435;SDS011;11385;50.822;4.324;2023-07-13T15:06:19;4.12;;;1.45;;